createdAt,value
2019-05-06T00:00:58.911Z,10.00
2019-05-06T00:03:24.895Z,11.30
2019-05-06T00:05:55.415Z,12.43
2019-05-06T00:08:25.972Z,11.03
2019-05-06T00:10:56.454Z,11.13
2019-05-06T00:13:27.053Z,9.33
2019-05-06T00:15:57.749Z,11.33
2019-05-06T00:18:28.253Z,10.53
2019-05-06T00:20:58.853Z,12.80
2019-05-06T00:23:35.368Z,8.33
2019-05-06T00:26:25.348Z,9.13
2019-05-06T00:28:59.907Z,12.13
2019-05-06T00:31:30.479Z,10.20
2019-05-06T00:34:00.995Z,11.00
2019-05-06T00:36:31.642Z,11.90
2019-05-06T00:39:12.213Z,10.87
2019-05-06T00:41:43.444Z,11.63
2019-05-06T00:44:14.354Z,11.33
2019-05-06T00:46:45.006Z,11.10
2019-05-06T00:49:15.510Z,10.47
2019-05-06T00:51:46.137Z,11.57
2019-05-06T00:54:20.343Z,12.43
2019-05-06T00:56:51.142Z,14.40
2019-05-06T00:59:23.699Z,11.73
2019-05-06T01:01:54.032Z,11.57
2019-05-06T01:04:24.622Z,9.90
2019-05-06T01:06:55.281Z,11.57
2019-05-06T01:09:26.355Z,13.20
2019-05-06T01:11:58.935Z,13.50
2019-05-06T01:14:35.747Z,11.53
2019-05-06T01:17:06.441Z,12.30
2019-05-06T01:19:36.927Z,12.17
2019-05-06T01:22:07.497Z,12.67
2019-05-06T01:24:38.099Z,10.83
2019-05-06T01:27:08.529Z,11.57
2019-05-06T01:29:39.141Z,12.83
2019-05-06T01:32:09.765Z,12.57
2019-05-06T01:34:40.456Z,12.57
2019-05-06T01:37:11.155Z,11.17
2019-05-06T01:39:49.891Z,14.33
2019-05-06T01:42:34.282Z,11.43
2019-05-06T01:45:04.829Z,9.63
2019-05-06T01:47:35.361Z,9.70
2019-05-06T01:50:06.350Z,8.60
2019-05-06T01:52:36.830Z,11.17
2019-05-06T01:55:07.900Z,8.60
2019-05-06T01:57:39.336Z,9.30
2019-05-06T02:00:10.581Z,9.83
2019-05-06T02:02:41.190Z,9.83
2019-05-06T02:05:13.768Z,12.37
2019-05-06T02:07:44.273Z,9.37
2019-05-06T02:10:15.027Z,10.63
2019-05-06T02:12:45.500Z,7.67
2019-05-06T02:15:16.287Z,9.53
2019-05-06T02:17:46.874Z,10.10
2019-05-06T02:20:17.557Z,10.40
2019-05-06T02:22:57.485Z,12.40
2019-05-06T02:25:34.269Z,13.27
2019-05-06T02:28:04.908Z,11.33
2019-05-06T02:30:45.898Z,13.30
2019-05-06T02:33:35.686Z,11.03
2019-05-06T02:36:19.807Z,14.63
2019-05-06T02:38:52.388Z,13.53
2019-05-06T02:41:23.324Z,13.33
2019-05-06T02:43:54.283Z,13.73
2019-05-06T02:46:24.972Z,17.93
2019-05-06T02:49:07.762Z,10.93
2019-05-06T02:51:38.227Z,13.87
2019-05-06T02:54:09.049Z,10.50
2019-05-06T02:56:39.642Z,12.77
2019-05-06T02:59:12.576Z,11.23
2019-05-06T03:01:43.388Z,14.83
2019-05-06T03:04:14.374Z,12.57
2019-05-06T03:06:45.004Z,10.40
2019-05-06T03:09:15.616Z,12.20
2019-05-06T03:11:46.320Z,10.97
2019-05-06T03:14:16.878Z,14.60
2019-05-06T03:16:47.517Z,8.30
2019-05-06T03:19:18.356Z,13.47
2019-05-06T03:22:07.710Z,12.13
2019-05-06T03:24:44.992Z,13.50
2019-05-06T03:27:15.588Z,11.33
2019-05-06T03:29:46.249Z,11.63
2019-05-06T03:32:28.489Z,13.47
2019-05-06T03:35:09.036Z,11.87
2019-05-06T03:37:23.931Z,7.93
2019-05-06T03:39:53.947Z,13.20
2019-05-06T03:42:24.415Z,12.63
2019-05-06T03:44:59.225Z,12.37
2019-05-06T03:47:39.919Z,10.97
2019-05-06T03:50:13.131Z,11.93
2019-05-06T03:52:44.317Z,9.17
2019-05-06T03:55:14.958Z,11.10
2019-05-06T03:57:46.927Z,8.87
2019-05-06T04:00:17.930Z,8.93
2019-05-06T04:02:48.448Z,9.80
2019-05-06T04:05:19.076Z,12.80
2019-05-06T04:07:52.986Z,10.03
2019-05-06T04:10:23.082Z,13.23
2019-05-06T04:12:54.221Z,14.90
2019-05-06T04:15:27.054Z,14.27
2019-05-06T04:18:04.310Z,15.50
2019-05-06T04:20:53.656Z,11.73
2019-05-06T04:23:33.455Z,16.37
2019-05-06T04:26:13.343Z,17.97
2019-05-06T04:28:43.653Z,12.37
2019-05-06T04:31:14.410Z,12.77
2019-05-06T04:34:03.434Z,11.23
2019-05-06T04:36:17.452Z,9.73
2019-05-06T04:38:48.037Z,10.73
2019-05-06T04:41:18.713Z,11.17
2019-05-06T04:43:49.524Z,7.30
2019-05-06T04:46:23.382Z,7.80
2019-05-06T04:48:53.875Z,10.30
2019-05-06T04:51:25.047Z,8.77
2019-05-06T04:53:55.987Z,10.17
2019-05-06T04:56:26.534Z,8.97
2019-05-06T04:59:06.324Z,10.30
2019-05-06T05:01:37.586Z,8.10
2019-05-06T05:04:22.821Z,10.30
2019-05-06T05:06:43.077Z,8.80
2019-05-06T05:09:17.117Z,8.03
2019-05-06T05:11:56.428Z,7.37
2019-05-06T05:14:32.854Z,8.80
2019-05-06T05:17:17.966Z,9.20
2019-05-06T05:19:48.570Z,7.27
2019-05-06T05:22:19.186Z,10.03
2019-05-06T05:24:52.191Z,8.03
2019-05-06T05:27:22.812Z,6.23
2019-05-06T05:29:53.537Z,9.40
2019-05-06T05:32:26.793Z,8.23
2019-05-06T05:34:56.442Z,8.47
2019-05-06T05:37:27.051Z,9.40
2019-05-06T05:39:58.229Z,6.77
2019-05-06T05:42:47.407Z,5.43
2019-05-06T05:45:18.298Z,7.33
2019-05-06T05:47:52.188Z,6.60
2019-05-06T05:50:32.663Z,8.07
2019-05-06T05:53:03.953Z,6.63
2019-05-06T05:55:34.678Z,8.33
2019-05-06T05:58:05.271Z,5.73
2019-05-06T06:00:36.523Z,8.83
2019-05-06T06:03:07.437Z,9.30
2019-05-06T06:05:38.198Z,8.07
2019-05-06T06:08:08.668Z,9.00
2019-05-06T06:10:52.395Z,6.23
2019-05-06T06:13:23.236Z,7.23
2019-05-06T06:16:03.097Z,5.93
2019-05-06T06:18:45.508Z,5.53
2019-05-06T06:21:28.962Z,6.67
2019-05-06T06:24:03.885Z,5.03
2019-05-06T06:26:34.518Z,8.13
2019-05-06T06:29:05.120Z,6.00
2019-05-06T06:31:44.846Z,8.90
2019-05-06T06:34:22.282Z,8.50
2019-05-06T06:36:59.684Z,5.97
2019-05-06T06:39:33.778Z,4.63
2019-05-06T06:42:04.498Z,7.47
2019-05-06T06:44:36.413Z,9.03
2019-05-06T06:47:06.976Z,6.03
2019-05-06T06:49:37.576Z,5.03
2019-05-06T06:52:11.541Z,8.27
2019-05-06T06:54:40.386Z,8.00
2019-05-06T06:57:23.166Z,7.60
2019-05-06T07:00:13.576Z,6.37
2019-05-06T07:03:03.668Z,4.80
2019-05-06T07:05:42.509Z,4.23
2019-05-06T07:08:13.167Z,5.50
2019-05-06T07:10:43.792Z,6.10
2019-05-06T07:13:17.426Z,4.43
2019-05-06T07:15:48.038Z,7.07
2019-05-06T07:18:18.584Z,5.90
2019-05-06T07:21:07.955Z,5.77
2019-05-06T07:23:38.677Z,5.33
2019-05-06T07:26:12.159Z,4.40
2019-05-06T07:28:43.637Z,5.37
2019-05-06T07:31:21.175Z,5.53
2019-05-06T07:33:46.842Z,3.70
2019-05-06T07:36:20.051Z,4.40
2019-05-06T07:38:53.096Z,5.07
2019-05-06T07:41:36.160Z,4.93
2019-05-06T07:44:24.234Z,4.80
2019-05-06T07:47:00.356Z,3.90
2019-05-06T07:49:32.955Z,4.37
2019-05-06T07:52:03.331Z,4.60
2019-05-06T07:54:33.942Z,4.33
2019-05-06T07:57:04.453Z,3.23
2019-05-06T07:59:35.052Z,4.13
2019-05-06T08:02:05.745Z,3.73
2019-05-06T08:04:36.320Z,4.90
2019-05-06T08:07:06.898Z,6.80
2019-05-06T08:09:37.545Z,3.83
2019-05-06T08:12:08.119Z,4.57
2019-05-06T08:14:43.137Z,3.67
2019-05-06T08:17:34.375Z,4.50
2019-05-06T08:20:05.977Z,3.83
2019-05-06T08:22:47.363Z,3.43
2019-05-06T08:25:17.959Z,4.47
2019-05-06T08:27:49.623Z,4.53
2019-05-06T08:30:22.921Z,4.40
2019-05-06T08:32:52.987Z,2.80
2019-05-06T08:35:23.694Z,2.63
2019-05-06T08:37:54.296Z,3.97
2019-05-06T08:40:26.552Z,2.70
2019-05-06T08:42:57.129Z,3.77
2019-05-06T08:45:27.660Z,6.30
2019-05-06T08:47:58.476Z,3.27
2019-05-06T08:50:36.379Z,3.40
2019-05-06T08:53:25.897Z,3.27
2019-05-06T08:55:56.811Z,4.37
2019-05-06T08:58:46.150Z,2.80
2019-05-06T09:01:37.247Z,3.57
2019-05-06T09:04:12.664Z,5.63
2019-05-06T09:06:42.929Z,4.83
2019-05-06T09:09:13.221Z,3.73
2019-05-06T09:11:43.889Z,5.57
2019-05-06T09:14:14.612Z,3.93
2019-05-06T09:16:45.306Z,3.60
2019-05-06T09:19:15.865Z,3.37
2019-05-06T09:21:46.571Z,3.90
2019-05-06T09:24:17.216Z,3.90
2019-05-06T09:26:55.406Z,3.50
2019-05-06T09:29:38.347Z,3.63
2019-05-06T09:32:14.684Z,3.93
2019-05-06T09:34:52.681Z,6.50
2019-05-06T09:37:24.120Z,6.93
2019-05-06T09:39:54.987Z,4.67
2019-05-06T09:42:25.672Z,5.23
2019-05-06T09:44:56.236Z,4.10
2019-05-06T09:47:45.525Z,5.57
2019-05-06T09:50:19.488Z,4.27
2019-05-06T09:52:49.988Z,4.37
2019-05-06T09:55:33.766Z,2.90
2019-05-06T09:58:06.048Z,7.87
2019-05-06T10:00:42.949Z,4.70
2019-05-06T10:03:13.542Z,3.90
2019-05-06T10:05:44.336Z,3.73
2019-05-06T10:08:15.053Z,5.33
2019-05-06T10:10:55.961Z,3.33
2019-05-06T10:13:17.891Z,3.40
2019-05-06T10:15:48.535Z,4.87
2019-05-06T10:18:19.113Z,2.67
2019-05-06T10:20:49.816Z,5.73
2019-05-06T10:23:22.312Z,4.73
2019-05-06T10:25:53.002Z,2.60
2019-05-06T10:28:42.358Z,6.90
2019-05-06T10:31:15.067Z,3.43
2019-05-06T10:34:04.545Z,3.90
2019-05-06T10:37:13.761Z,4.63
2019-05-06T10:39:43.408Z,4.00
2019-05-06T10:42:19.470Z,2.80
2019-05-06T10:45:18.746Z,4.73
2019-05-06T10:47:49.429Z,7.03
2019-05-06T10:50:20.190Z,3.47
2019-05-06T10:53:09.995Z,4.17
2019-05-06T10:55:43.268Z,4.93
2019-05-06T10:58:13.785Z,2.83
2019-05-06T11:00:44.550Z,2.90
2019-05-06T11:03:17.581Z,4.47
2019-05-06T11:05:48.166Z,3.90
2019-05-06T11:08:19.168Z,3.77
2019-05-06T11:10:49.739Z,5.17
2019-05-06T11:13:20.365Z,3.20
2019-05-06T11:15:52.844Z,3.30
2019-05-06T11:18:23.493Z,3.20
2019-05-06T11:20:56.323Z,2.67
2019-05-06T11:23:26.292Z,2.73
2019-05-06T11:25:56.936Z,3.70
2019-05-06T11:28:46.305Z,3.13
2019-05-06T11:31:35.808Z,2.73
2019-05-06T11:34:16.327Z,2.53
2019-05-06T11:36:52.231Z,4.27
2019-05-06T11:39:23.340Z,3.37
2019-05-06T11:42:15.329Z,5.60
2019-05-06T11:44:26.181Z,7.67
2019-05-06T11:46:56.595Z,4.60
2019-05-06T11:49:27.236Z,4.03
2019-05-06T11:51:57.754Z,2.93
2019-05-06T11:54:28.276Z,4.37
2019-05-06T11:56:58.800Z,5.03
2019-05-06T11:59:29.321Z,6.33
2019-05-06T12:02:02.563Z,5.67
2019-05-06T12:04:33.506Z,4.03
2019-05-06T12:07:11.095Z,3.40
2019-05-06T12:09:36.455Z,10.13
2019-05-06T12:12:07.185Z,3.87
2019-05-06T12:14:37.719Z,4.83
2019-05-06T12:17:08.366Z,7.83
2019-05-06T12:19:38.927Z,6.93
2019-05-06T12:22:09.391Z,4.17
2019-05-06T12:24:39.897Z,4.33
2019-05-06T12:27:12.951Z,3.80
2019-05-06T12:29:43.369Z,5.93
2019-05-06T12:32:24.560Z,6.50
2019-05-06T12:34:55.181Z,5.43
2019-05-06T12:37:27.365Z,9.43
2019-05-06T12:39:59.865Z,8.70
2019-05-06T12:42:49.218Z,8.73
2019-05-06T12:45:26.076Z,8.83
2019-05-06T12:48:15.530Z,9.37
2019-05-06T12:50:46.061Z,10.00
2019-05-06T12:53:17.068Z,8.20
2019-05-06T12:55:47.607Z,5.80
2019-05-06T12:58:21.087Z,7.30
2019-05-06T13:00:50.474Z,6.20
2019-05-06T13:03:23.469Z,9.10
2019-05-06T13:05:53.661Z,6.57
2019-05-06T13:08:28.689Z,10.07
2019-05-06T13:10:56.726Z,9.47
2019-05-06T13:13:27.351Z,7.73
2019-05-06T13:15:57.809Z,6.87
2019-05-06T13:18:28.399Z,11.93
2019-05-06T13:20:58.982Z,8.73
2019-05-06T13:23:35.835Z,7.57
2019-05-06T13:26:06.739Z,7.37
2019-05-06T13:28:42.146Z,6.83
2019-05-06T13:31:20.501Z,12.30
2019-05-06T13:33:54.047Z,10.70
2019-05-06T13:36:23.944Z,16.07
2019-05-06T13:39:09.707Z,15.13
2019-05-06T13:41:27.068Z,13.43
2019-05-06T13:44:05.296Z,10.40
2019-05-06T13:46:39.787Z,9.07
2019-05-06T13:49:29.306Z,12.50
2019-05-06T13:52:04.537Z,9.93
2019-05-06T13:54:53.019Z,10.30
2019-05-06T13:57:23.867Z,9.70
2019-05-06T13:59:54.412Z,14.67
2019-05-06T14:02:33.834Z,9.70
2019-05-06T14:05:03.608Z,9.00
2019-05-06T14:07:34.804Z,8.93
2019-05-06T14:10:06.252Z,6.80
2019-05-06T14:12:36.865Z,9.53
2019-05-06T14:15:08.570Z,8.20
2019-05-06T14:17:39.150Z,8.87
2019-05-06T14:20:12.436Z,6.63
2019-05-06T14:22:43.891Z,8.23
2019-05-06T14:25:33.835Z,8.83
2019-05-06T14:28:14.748Z,8.53
2019-05-06T14:30:56.162Z,6.87
2019-05-06T14:33:26.859Z,7.37
2019-05-06T14:35:57.440Z,18.27
2019-05-06T14:38:28.195Z,7.70
2019-05-06T14:41:08.165Z,11.10
2019-05-06T14:43:37.286Z,13.50
2019-05-06T14:46:07.946Z,10.27
2019-05-06T14:48:38.458Z,8.03
2019-05-06T14:51:09.060Z,14.23
2019-05-06T14:53:39.623Z,7.83
2019-05-06T14:56:29.080Z,10.03
2019-05-06T14:59:06.886Z,11.57
2019-05-06T15:01:40.077Z,10.67
2019-05-06T15:04:12.537Z,10.03
2019-05-06T15:18:35.868Z,10.70
2019-05-06T15:21:32.325Z,8.73
2019-05-06T15:23:38.839Z,10.50
2019-05-06T15:26:09.533Z,10.40
2019-05-06T15:28:42.350Z,10.57
2019-05-06T15:31:19.543Z,8.00
2019-05-06T15:33:52.870Z,8.87
2019-05-06T15:36:32.752Z,10.30
2019-05-06T15:39:03.575Z,8.03
2019-05-06T15:41:34.153Z,8.03
2019-05-06T15:44:04.875Z,11.37
2019-05-06T15:46:35.454Z,9.83
2019-05-06T15:49:06.190Z,17.27
2019-05-06T15:51:39.695Z,8.90
2019-05-06T15:54:12.308Z,12.40
2019-05-06T15:56:44.269Z,16.70
2019-05-06T15:59:14.773Z,13.67
2019-05-06T16:01:45.744Z,13.40
2019-05-06T16:04:16.399Z,9.50
2019-05-06T16:06:48.218Z,10.00
2019-05-06T16:09:18.937Z,9.30
2019-05-06T16:11:49.547Z,14.60
2019-05-06T16:14:23.013Z,15.53
2019-05-06T16:16:53.629Z,10.13
2019-05-06T16:19:24.453Z,11.83
2019-05-06T16:21:55.229Z,10.37
2019-05-06T16:24:34.610Z,9.20
2019-05-06T16:27:04.739Z,7.60
2019-05-06T16:29:38.434Z,8.13
2019-05-06T16:32:10.422Z,8.67
2019-05-06T16:34:44.209Z,13.23
2019-05-06T16:37:14.862Z,21.30
2019-05-06T16:39:45.479Z,10.57
2019-05-06T16:42:16.519Z,23.57
2019-05-06T16:44:49.218Z,8.57
2019-05-06T16:47:38.932Z,10.43
2019-05-06T16:50:13.520Z,7.80
2019-05-06T16:52:45.550Z,12.83
2019-05-06T16:55:24.226Z,8.97
2019-05-06T16:58:10.063Z,10.47
2019-05-06T17:00:42.847Z,7.50
2019-05-06T17:03:25.683Z,9.00
2019-05-06T17:06:07.429Z,8.07
2019-05-06T17:08:38.800Z,12.70
2019-05-06T17:11:28.297Z,9.87
2019-05-06T17:13:52.252Z,11.67
2019-05-06T17:16:25.669Z,5.97
2019-05-06T17:18:56.914Z,6.07
2019-05-06T17:21:32.668Z,9.80
2019-05-06T17:24:03.477Z,5.60
2019-05-06T17:26:45.578Z,7.63
2019-05-06T17:29:44.149Z,9.60
2019-05-06T17:32:33.868Z,8.70
2019-05-06T17:35:12.641Z,8.57
2019-05-06T17:38:02.788Z,9.67
2019-05-06T17:40:34.305Z,8.73
2019-05-06T17:43:06.803Z,20.23
2019-05-06T17:46:06.503Z,10.63
2019-05-06T17:48:54.158Z,10.77
2019-05-06T17:51:52.969Z,8.27
2019-05-06T17:54:27.124Z,10.60
2019-05-06T17:57:03.763Z,7.10
2019-05-06T17:59:37.142Z,10.77
2019-05-06T18:02:12.576Z,9.13
2019-05-06T18:04:45.590Z,9.37
2019-05-06T18:07:19.533Z,9.27
2019-05-06T18:09:53.088Z,8.33
2019-05-06T18:12:25.709Z,10.47
2019-05-06T18:15:06.057Z,8.10
2019-05-06T18:17:38.214Z,12.67
2019-05-06T18:20:13.271Z,9.30
2019-05-06T18:22:44.260Z,12.90
2019-05-06T18:25:16.112Z,10.27
2019-05-06T18:27:48.549Z,7.30
2019-05-06T18:30:32.632Z,9.57
2019-05-06T18:32:56.234Z,8.00
2019-05-06T18:35:28.158Z,12.13
2019-05-06T18:38:05.053Z,11.03
2019-05-06T18:40:38.544Z,10.90
2019-05-06T18:43:15.080Z,11.90
2019-05-06T18:45:45.843Z,7.87
2019-05-06T18:48:17.903Z,11.27
2019-05-06T18:50:48.619Z,18.83
2019-05-06T18:53:22.609Z,13.97
2019-05-06T18:55:54.563Z,13.60
2019-05-06T18:58:29.078Z,8.47
2019-05-06T19:01:09.831Z,7.60
2019-05-06T19:03:48.744Z,11.57
2019-05-06T19:06:25.804Z,11.70
2019-05-06T19:09:17.526Z,10.97
2019-05-06T19:11:55.638Z,8.47
2019-05-06T19:14:33.398Z,11.43
2019-05-06T19:17:06.129Z,10.20
2019-05-06T19:19:46.248Z,12.07
2019-05-06T19:22:22.375Z,9.97
2019-05-06T19:25:02.623Z,8.07
2019-05-06T19:27:42.319Z,9.63
2019-05-06T19:30:14.213Z,11.90
2019-05-06T19:32:53.134Z,10.63
2019-05-06T19:35:24.127Z,10.60
2019-05-06T19:37:57.869Z,7.67
2019-05-06T19:40:32.354Z,9.87
2019-05-06T19:43:07.663Z,7.03
2019-05-06T19:45:38.376Z,6.60
2019-05-06T19:48:16.693Z,9.63
2019-05-06T19:50:56.437Z,8.77
2019-05-06T19:53:32.621Z,11.07
2019-05-06T19:56:04.636Z,14.57
2019-05-06T19:58:36.520Z,11.20
2019-05-06T20:01:09.785Z,11.90
2019-05-06T20:03:46.023Z,10.00
2019-05-06T20:06:39.915Z,11.10
2019-05-06T20:09:33.555Z,14.33
2019-05-06T20:12:08.311Z,15.33
2019-05-06T20:14:38.971Z,12.83
2019-05-06T20:17:12.900Z,11.43
2019-05-06T20:19:45.956Z,13.27
2019-05-06T20:22:23.362Z,11.13
2019-05-06T20:27:54.875Z,11.00
2019-05-06T20:30:28.444Z,10.17
2019-05-06T20:33:00.445Z,9.27
2019-05-06T20:35:33.092Z,10.37
2019-05-06T20:38:12.214Z,12.70
2019-05-06T20:40:43.453Z,11.17
2019-05-06T20:43:20.434Z,12.00
2019-05-06T20:45:52.145Z,12.37
2019-05-06T20:48:23.652Z,11.60
2019-05-06T20:50:54.469Z,10.43
2019-05-06T20:53:25.131Z,12.67
2019-05-06T20:55:55.656Z,13.67
2019-05-06T20:58:26.233Z,11.80
2019-05-06T21:00:56.714Z,11.87
2019-05-06T21:03:27.508Z,22.27
2019-05-06T21:05:58.134Z,16.33
2019-05-06T21:08:28.695Z,16.83
2019-05-06T21:10:59.306Z,14.83
2019-05-06T21:13:33.040Z,15.57
2019-05-06T21:16:02.335Z,15.87
2019-05-06T21:18:33.486Z,14.07
2019-05-06T21:21:04.267Z,16.93
2019-05-06T21:23:35.234Z,15.40
2019-05-06T21:26:05.962Z,19.47
2019-05-06T21:28:36.418Z,22.53
2019-05-06T21:31:06.979Z,16.33
2019-05-06T21:33:37.713Z,23.47
2019-05-06T21:36:08.415Z,18.50
2019-05-06T21:38:39.121Z,18.37
2019-05-06T21:41:09.861Z,22.30
2019-05-06T21:43:47.159Z,19.77
2019-05-06T21:46:13.120Z,22.53
2019-05-06T21:48:43.770Z,24.83
2019-05-06T21:51:14.337Z,22.23
2019-05-06T21:53:44.951Z,19.80
2019-05-06T21:56:15.580Z,15.97
2019-05-06T21:58:46.124Z,22.53
2019-05-06T22:01:17.017Z,22.93
2019-05-06T22:03:47.663Z,19.70
2019-05-06T22:06:18.314Z,18.53
2019-05-06T22:08:49.091Z,15.23
2019-05-06T22:11:19.881Z,17.67
2019-05-06T22:13:58.912Z,13.37
2019-05-06T22:16:23.909Z,14.63
2019-05-06T22:18:54.840Z,9.20
2019-05-06T22:21:26.226Z,11.13
2019-05-06T22:23:59.722Z,10.73
2019-05-06T22:26:32.498Z,13.43
2019-05-06T22:29:03.641Z,11.40
2019-05-06T22:31:34.581Z,11.70
2019-05-06T22:34:05.480Z,13.60
2019-05-06T22:36:55.275Z,12.30
2019-05-06T22:39:26.146Z,9.63
2019-05-06T22:41:56.697Z,12.17
2019-05-06T22:44:27.556Z,10.00
2019-05-06T22:46:58.400Z,11.87
2019-05-06T22:49:29.161Z,8.47
2019-05-06T22:51:59.931Z,10.97
2019-05-06T22:54:32.031Z,11.07
2019-05-06T22:57:02.948Z,9.47
2019-05-06T22:59:33.928Z,9.70
2019-05-06T23:02:13.938Z,10.73
2019-05-06T23:04:46.409Z,9.60
2019-05-06T23:07:17.314Z,10.13
2019-05-06T23:09:48.083Z,12.73
2019-05-06T23:12:19.082Z,9.37
2019-05-06T23:14:49.904Z,13.00
2019-05-06T23:17:20.732Z,9.50
2019-05-06T23:19:52.811Z,12.10
2019-05-06T23:22:23.638Z,11.80
2019-05-06T23:24:54.292Z,10.07
2019-05-06T23:27:25.248Z,9.73
2019-05-06T23:29:56.098Z,8.53
2019-05-06T23:32:26.869Z,12.80
2019-05-06T23:34:57.612Z,9.90
2019-05-06T23:37:25.899Z,9.77
2019-05-06T23:40:54.032Z,13.43
2019-05-06T23:44:23.062Z,11.10
2019-05-06T23:47:53.136Z,11.77
2019-05-06T23:51:22.344Z,14.73
2019-05-06T23:54:52.269Z,14.17
2019-05-06T23:57:22.531Z,13.57
2019-05-06T23:59:54.586Z,10.43
